Time;durP1;ratioP1;P1;durP2;ratioP2;P2;SDS_P1;SDS_P2;PMS_P1;PMS_P2;Temp;Humidity;BMP_temperature;BMP_pressure;BME280_temperature;BME280_humidity;BME280_pressure;Samples;Min_cycle;Max_cycle;Signal;HPM_P1;HPM_P2
2021/05/11 00:01:07;;;;;;;0.68;0.65;;;;;;;;;;5086101;28;20033;-80
2021/05/11 00:03:33;;;;;;;1.38;0.82;;;;;;;;;;5083544;28;20072;-81
2021/05/11 00:05:59;;;;;;;0.73;0.52;;;;;;;;;;5083334;28;20035;-81
2021/05/11 00:08:25;;;;;;;1.52;0.65;;;;;;;;;;5083024;28;20469;-80
2021/05/11 00:10:52;;;;;;;1.85;0.60;;;;;;;;;;5081988;28;20059;-81
2021/05/11 00:13:18;;;;;;;3.63;0.90;;;;;;;;;;5085708;28;20061;-79
2021/05/11 00:15:44;;;;;;;0.60;0.60;;;;;;;;;;5080926;28;20024;-80
2021/05/11 00:18:10;;;;;;;3.50;0.80;;;;;;;;;;5081626;28;20035;-83
2021/05/11 00:20:36;;;;;;;0.80;0.73;;;;;;;;;;5080531;28;20088;-80
2021/05/11 00:23:03;;;;;;;2.40;0.90;;;;;;;;;;5080895;28;20084;-81
2021/05/11 00:25:29;;;;;;;0.60;0.60;;;;;;;;;;5081522;28;20029;-81
2021/05/11 00:27:55;;;;;;;1.75;0.60;;;;;;;;;;5081630;28;20024;-82
2021/05/11 00:30:21;;;;;;;1.75;0.60;;;;;;;;;;5071863;28;20016;-81
2021/05/11 00:32:49;;;;;;;1.25;0.70;;;;;;;;;;5063842;28;20036;-81
2021/05/11 00:35:15;;;;;;;0.77;0.60;;;;;;;;;;5060846;28;20025;-82
2021/05/11 00:37:41;;;;;;;1.08;0.70;;;;;;;;;;5060059;28;20040;-83
2021/05/11 00:40:08;;;;;;;0.93;0.52;;;;;;;;;;5057748;28;20017;-81
2021/05/11 00:42:35;;;;;;;2.40;0.52;;;;;;;;;;5059961;28;20021;-82
2021/05/11 00:45:01;;;;;;;1.02;0.60;;;;;;;;;;5059366;28;20112;-81
2021/05/11 00:47:27;;;;;;;0.40;0.40;;;;;;;;;;5059463;28;20021;-82
2021/05/11 00:49:53;;;;;;;0.40;0.40;;;;;;;;;;5060699;28;20047;-81
2021/05/11 00:52:20;;;;;;;1.75;0.55;;;;;;;;;;5075312;28;20016;-81
2021/05/11 00:54:47;;;;;;;0.98;0.40;;;;;;;;;;5058483;28;20017;-81
2021/05/11 00:57:13;;;;;;;0.65;0.65;;;;;;;;;;5076779;28;20116;-80
2021/05/11 00:59:40;;;;;;;1.20;0.40;;;;;;;;;;5077337;28;20017;-80
2021/05/11 01:02:07;;;;;;;2.75;0.50;;;;;;;;;;5076500;28;20078;-81
2021/05/11 01:04:33;;;;;;;0.55;0.45;;;;;;;;;;5079508;28;20028;-81
2021/05/11 01:06:59;;;;;;;1.77;0.45;;;;;;;;;;5077122;28;20023;-80
2021/05/11 01:09:26;;;;;;;0.98;0.60;;;;;;;;;;5079459;28;20082;-81
2021/05/11 01:11:53;;;;;;;0.30;0.30;;;;;;;;;;5079230;28;20092;-82
2021/05/11 01:14:20;;;;;;;0.70;0.70;;;;;;;;;;5078183;28;20030;-82
2021/05/11 01:16:50;;;;;;;1.50;0.55;;;;;;;;;;5078340;28;20048;-81
2021/05/11 01:19:21;;;;;;;0.57;0.57;;;;;;;;;;5080118;28;20016;-81
2021/05/11 01:22:08;;;;;;;3.00;0.55;;;;;;;;;;5078244;28;20568;-81
2021/05/11 01:24:37;;;;;;;0.55;0.55;;;;;;;;;;5078038;28;20048;-81
2021/05/11 01:27:24;;;;;;;1.52;0.50;;;;;;;;;;5077142;28;20021;-81
2021/05/11 01:30:04;;;;;;;1.95;0.90;;;;;;;;;;5076196;28;20017;-81
2021/05/11 01:48:48;;;;;;;0.70;0.70;;;;;;;;;;5078891;28;20032;-81
2021/05/11 01:56:32;;;;;;;1.33;0.75;;;;;;;;;;5082278;28;20094;-80
2021/05/11 02:23:10;;;;;;;0.57;0.57;;;;;;;;;;5081725;28;20074;-81
2021/05/11 02:25:39;;;;;;;0.50;0.50;;;;;;;;;;5079945;28;20543;-81
2021/05/11 02:28:05;;;;;;;1.17;0.55;;;;;;;;;;5079056;28;20104;-81
2021/05/11 02:30:32;;;;;;;0.40;0.40;;;;;;;;;;5071629;28;20029;-81
2021/05/11 02:32:58;;;;;;;0.77;0.77;;;;;;;;;;5057050;28;20035;-81
2021/05/11 02:35:24;;;;;;;0.68;0.47;;;;;;;;;;5059647;28;20039;-81
2021/05/11 02:37:50;;;;;;;0.40;0.40;;;;;;;;;;5069369;28;20499;-81
2021/05/11 02:40:18;;;;;;;0.32;0.32;;;;;;;;;;5059575;28;20044;-81
2021/05/11 02:42:46;;;;;;;0.88;0.63;;;;;;;;;;5058626;28;20017;-81
2021/05/11 02:45:13;;;;;;;0.30;0.30;;;;;;;;;;5058315;28;20442;-81
2021/05/11 02:47:50;;;;;;;0.70;0.50;;;;;;;;;;5068129;28;20029;-80
2021/05/11 02:50:20;;;;;;;1.38;0.52;;;;;;;;;;5069905;28;20096;-80
2021/05/11 02:52:47;;;;;;;0.50;0.30;;;;;;;;;;5069613;28;20019;-80
2021/05/11 02:55:14;;;;;;;1.02;0.47;;;;;;;;;;5070036;28;20028;-80
2021/05/11 02:57:40;;;;;;;0.25;0.25;;;;;;;;;;5070089;28;20055;-80
2021/05/11 03:00:07;;;;;;;1.13;0.60;;;;;;;;;;5070067;28;20036;-81
2021/05/11 03:02:33;;;;;;;1.20;0.60;;;;;;;;;;5068075;28;20032;-80
2021/05/11 03:05:02;;;;;;;0.70;0.70;;;;;;;;;;5070477;28;20043;-81
2021/05/11 03:07:28;;;;;;;0.60;0.60;;;;;;;;;;5065175;28;20040;-80
2021/05/11 03:09:54;;;;;;;0.35;0.35;;;;;;;;;;5062775;28;20025;-81
2021/05/11 03:12:20;;;;;;;0.57;0.50;;;;;;;;;;5062446;28;20029;-81
2021/05/11 03:14:46;;;;;;;0.95;0.50;;;;;;;;;;5061294;28;20048;-81
2021/05/11 03:17:12;;;;;;;0.55;0.40;;;;;;;;;;5061136;28;20024;-81
2021/05/11 03:19:39;;;;;;;0.20;0.20;;;;;;;;;;5063066;28;20107;-81
2021/05/11 03:22:07;;;;;;;1.50;0.80;;;;;;;;;;5059596;28;20028;-80
2021/05/11 03:24:34;;;;;;;2.38;0.50;;;;;;;;;;5064607;28;20091;-80
2021/05/11 03:27:00;;;;;;;1.05;0.43;;;;;;;;;;5061979;28;20100;-80
2021/05/11 03:29:26;;;;;;;1.02;0.70;;;;;;;;;;5060795;28;20032;-81
2021/05/11 03:31:53;;;;;;;0.50;0.50;;;;;;;;;;5063871;28;20078;-81
2021/05/11 03:34:19;;;;;;;1.75;1.00;;;;;;;;;;5068476;28;20107;-81
2021/05/11 03:36:45;;;;;;;0.90;0.50;;;;;;;;;;5063089;28;20056;-82
2021/05/11 03:39:11;;;;;;;0.98;0.55;;;;;;;;;;5068006;28;20079;-80
2021/05/11 03:41:40;;;;;;;1.27;1.02;;;;;;;;;;5068924;28;20025;-80
2021/05/11 03:44:13;;;;;;;0.80;0.80;;;;;;;;;;5069442;28;20061;-80
2021/05/11 03:46:42;;;;;;;0.75;0.40;;;;;;;;;;5070879;28;20021;-80
2021/05/11 03:49:08;;;;;;;1.27;0.40;;;;;;;;;;5067898;28;20092;-81
2021/05/11 03:51:36;;;;;;;0.80;0.80;;;;;;;;;;5074482;28;20051;-80
2021/05/11 03:54:02;;;;;;;0.52;0.52;;;;;;;;;;5076456;28;20020;-80
2021/05/11 03:56:28;;;;;;;0.63;0.63;;;;;;;;;;5072386;28;20025;-81
2021/05/11 03:58:54;;;;;;;0.45;0.45;;;;;;;;;;5062743;28;20099;-83
2021/05/11 04:01:24;;;;;;;2.22;0.65;;;;;;;;;;5085708;28;20017;-84
2021/05/11 04:03:50;;;;;;;1.42;0.60;;;;;;;;;;5067141;28;20025;-84
2021/05/11 04:06:16;;;;;;;2.35;0.80;;;;;;;;;;5061661;28;20044;-84
2021/05/11 04:09:12;;;;;;;0.80;0.47;;;;;;;;;;5062331;28;20070;-83
2021/05/11 04:16:46;;;;;;;0.40;0.40;;;;;;;;;;5063128;28;20052;-83
2021/05/11 04:19:13;;;;;;;1.05;0.50;;;;;;;;;;5068114;28;20025;-81
2021/05/11 04:21:39;;;;;;;0.65;0.60;;;;;;;;;;5068094;28;20029;-82
2021/05/11 04:24:05;;;;;;;0.98;0.70;;;;;;;;;;5067471;28;20028;-83
2021/05/11 04:26:34;;;;;;;0.85;0.70;;;;;;;;;;5065182;28;20043;-83
2021/05/11 04:29:02;;;;;;;0.50;0.50;;;;;;;;;;5062723;28;20021;-83
2021/05/11 04:31:29;;;;;;;0.80;0.70;;;;;;;;;;5077799;28;20104;-82
2021/05/11 04:33:56;;;;;;;1.48;0.63;;;;;;;;;;5088230;28;20128;-82
2021/05/11 04:36:23;;;;;;;0.80;0.60;;;;;;;;;;5089083;28;20024;-80
2021/05/11 04:38:49;;;;;;;1.10;0.70;;;;;;;;;;5091831;28;20029;-80
2021/05/11 04:41:15;;;;;;;0.70;0.65;;;;;;;;;;5095821;28;20020;-78
2021/05/11 04:43:42;;;;;;;1.40;0.77;;;;;;;;;;5095267;28;20039;-79
2021/05/11 04:48:40;;;;;;;2.33;0.93;;;;;;;;;;5082503;28;20376;-81
2021/05/11 04:51:06;;;;;;;2.25;1.08;;;;;;;;;;5083374;28;20104;-80
2021/05/11 04:53:32;;;;;;;1.55;0.60;;;;;;;;;;5081495;28;20435;-83
2021/05/11 04:55:58;;;;;;;0.50;0.50;;;;;;;;;;5080810;28;20074;-82
2021/05/11 04:58:24;;;;;;;1.17;0.70;;;;;;;;;;5075746;28;20489;-81
2021/05/11 05:00:51;;;;;;;0.70;0.60;;;;;;;;;;5068960;28;20076;-83
2021/05/11 05:03:25;;;;;;;2.10;0.63;;;;;;;;;;5080578;28;20031;-83
2021/05/11 05:05:51;;;;;;;0.40;0.40;;;;;;;;;;5081280;28;20104;-83
2021/05/11 05:08:17;;;;;;;0.85;0.70;;;;;;;;;;5080894;28;20028;-83
2021/05/11 05:10:43;;;;;;;1.08;0.82;;;;;;;;;;5080302;28;20029;-82
2021/05/11 05:13:10;;;;;;;0.95;0.60;;;;;;;;;;5080877;28;20044;-84
2021/05/11 05:15:36;;;;;;;1.23;0.60;;;;;;;;;;5067388;28;20025;-83
2021/05/11 05:18:02;;;;;;;1.25;0.75;;;;;;;;;;5060967;28;20025;-82
2021/05/11 05:20:28;;;;;;;0.77;0.68;;;;;;;;;;5059798;28;20021;-82
2021/05/11 05:22:54;;;;;;;0.55;0.50;;;;;;;;;;5060847;28;20021;-83
2021/05/11 05:25:24;;;;;;;1.10;0.95;;;;;;;;;;5061661;28;20035;-83
2021/05/11 05:30:20;;;;;;;0.85;0.85;;;;;;;;;;5070020;28;20051;-81
2021/05/11 05:32:46;;;;;;;0.65;0.60;;;;;;;;;;5067777;28;20111;-82
2021/05/11 05:35:12;;;;;;;1.25;0.70;;;;;;;;;;5068341;28;20025;-84
2021/05/11 05:37:38;;;;;;;1.27;0.57;;;;;;;;;;5082533;28;20630;-82
2021/05/11 05:40:07;;;;;;;3.60;0.52;;;;;;;;;;5083372;28;20040;-81
2021/05/11 05:42:33;;;;;;;1.42;0.98;;;;;;;;;;5089796;28;20069;-80
2021/05/11 05:44:59;;;;;;;1.35;0.90;;;;;;;;;;5080750;28;20025;-81
2021/05/11 05:47:25;;;;;;;0.80;0.80;;;;;;;;;;5081005;28;20024;-80
2021/05/11 05:49:59;;;;;;;1.50;0.70;;;;;;;;;;5080787;28;20021;-79
2021/05/11 05:52:34;;;;;;;1.10;0.93;;;;;;;;;;5078445;28;20401;-82
2021/05/11 05:55:00;;;;;;;0.98;0.80;;;;;;;;;;5081186;28;20021;-80
2021/05/11 05:57:27;;;;;;;1.02;0.90;;;;;;;;;;5079797;28;20024;-83
2021/05/11 05:59:53;;;;;;;2.55;0.90;;;;;;;;;;5075974;28;20029;-81
2021/05/11 06:02:22;;;;;;;2.05;0.95;;;;;;;;;;5070380;28;20107;-82
2021/05/11 06:04:48;;;;;;;1.27;0.80;;;;;;;;;;5089934;28;20016;-82
2021/05/11 06:07:14;;;;;;;1.75;0.88;;;;;;;;;;5087644;28;20252;-80
2021/05/11 06:09:41;;;;;;;1.38;1.00;;;;;;;;;;5086575;28;20088;-81
2021/05/11 06:14:59;;;;;;;2.28;1.05;;;;;;;;;;5086414;28;20048;-80
2021/05/11 06:17:25;;;;;;;0.90;0.70;;;;;;;;;;5082216;28;20453;-82
2021/05/11 06:19:52;;;;;;;0.82;0.75;;;;;;;;;;5079418;28;20024;-81
2021/05/11 06:22:18;;;;;;;0.82;0.50;;;;;;;;;;5078421;28;20021;-79
2021/05/11 06:24:45;;;;;;;1.63;0.65;;;;;;;;;;5077854;28;20024;-81
2021/05/11 06:27:13;;;;;;;3.80;1.02;;;;;;;;;;5078730;28;20044;-82
2021/05/11 06:29:41;;;;;;;1.48;0.60;;;;;;;;;;5078314;28;20052;-79
2021/05/11 06:32:08;;;;;;;1.05;0.70;;;;;;;;;;5069120;28;20044;-82
2021/05/11 06:34:35;;;;;;;1.20;0.98;;;;;;;;;;5080492;28;20031;-83
2021/05/11 06:37:01;;;;;;;10.13;1.58;;;;;;;;;;5088470;28;20016;-79
2021/05/11 06:39:28;;;;;;;2.22;1.00;;;;;;;;;;5079463;28;20013;-82
2021/05/11 06:41:55;;;;;;;1.38;0.88;;;;;;;;;;5059380;28;20026;-81
2021/05/11 06:52:54;;;;;;;0.70;0.70;;;;;;;;;;5071215;28;20040;-80
2021/05/11 06:55:21;;;;;;;1.40;1.10;;;;;;;;;;5070329;28;20043;-81
2021/05/11 06:57:47;;;;;;;1.10;1.00;;;;;;;;;;5053183;28;20089;-80
2021/05/11 07:00:14;;;;;;;0.52;0.50;;;;;;;;;;5067353;28;20135;-81
2021/05/11 07:02:40;;;;;;;2.65;1.00;;;;;;;;;;5070438;28;20032;-81
2021/05/11 07:05:06;;;;;;;1.38;0.93;;;;;;;;;;5052845;28;20113;-81
2021/05/11 07:07:35;;;;;;;0.80;0.77;;;;;;;;;;5054258;28;20143;-81
2021/05/11 07:10:10;;;;;;;2.00;1.48;;;;;;;;;;5051605;28;20021;-77
2021/05/11 07:15:21;;;;;;;1.92;1.00;;;;;;;;;;5058869;28;20206;-83
2021/05/11 07:17:47;;;;;;;3.50;1.20;;;;;;;;;;5050764;28;20049;-80
2021/05/11 07:20:13;;;;;;;1.35;1.00;;;;;;;;;;5051163;28;20025;-80
2021/05/11 07:22:40;;;;;;;3.17;0.95;;;;;;;;;;5059710;28;20025;-81
2021/05/11 07:25:10;;;;;;;0.50;0.50;;;;;;;;;;5055916;28;20089;-80
2021/05/11 07:30:29;;;;;;;0.90;0.68;;;;;;;;;;5068594;28;20017;-82
2021/05/11 07:32:55;;;;;;;5.43;0.80;;;;;;;;;;5086827;28;20025;-81
2021/05/11 07:35:21;;;;;;;2.45;0.88;;;;;;;;;;5051900;28;20030;-80
2021/05/11 07:37:47;;;;;;;1.48;1.17;;;;;;;;;;5040575;28;20390;-82
2021/05/11 07:40:13;;;;;;;1.45;1.17;;;;;;;;;;5048412;28;20029;-80
2021/05/11 07:42:40;;;;;;;1.95;1.40;;;;;;;;;;5060914;28;20075;-81
2021/05/11 07:45:07;;;;;;;1.58;1.27;;;;;;;;;;5058361;28;20698;-81
2021/05/11 07:50:40;;;;;;;2.33;1.05;;;;;;;;;;5063466;28;20082;-82
2021/05/11 08:04:41;;;;;;;2.70;1.27;;;;;;;;;;5050764;28;20041;-82
2021/05/11 08:17:41;;;;;;;1.58;0.85;;;;;;;;;;5043375;28;20041;-82
2021/05/11 08:28:23;;;;;;;3.72;1.77;;;;;;;;;;5064713;28;20120;-82
2021/05/11 08:30:49;;;;;;;1.48;1.05;;;;;;;;;;5076669;28;20042;-82
2021/05/11 08:33:15;;;;;;;1.75;1.10;;;;;;;;;;5071466;28;20035;-78
2021/05/11 08:35:41;;;;;;;4.07;1.17;;;;;;;;;;5075907;28;20025;-79
2021/05/11 08:38:07;;;;;;;1.92;1.05;;;;;;;;;;5071033;28;20029;-78
2021/05/11 08:40:34;;;;;;;2.53;0.80;;;;;;;;;;5069609;28;20055;-78
2021/05/11 08:43:08;;;;;;;1.20;0.98;;;;;;;;;;5049853;28;20056;-77
2021/05/11 08:45:35;;;;;;;1.98;1.17;;;;;;;;;;5049175;28;20022;-77
2021/05/11 08:48:01;;;;;;;3.60;1.55;;;;;;;;;;5050358;28;20029;-77
2021/05/11 08:50:38;;;;;;;3.83;1.20;;;;;;;;;;5058431;28;20041;-77
2021/05/11 09:04:56;;;;;;;1.67;1.00;;;;;;;;;;5084361;28;20085;-78
2021/05/11 09:16:06;;;;;;;2.00;1.00;;;;;;;;;;5047287;28;20048;-83
2021/05/11 09:24:09;;;;;;;4.75;2.03;;;;;;;;;;5068053;28;20031;-77
2021/05/11 09:29:41;;;;;;;2.92;1.50;;;;;;;;;;5068310;28;20512;-77
2021/05/11 09:59:28;;;;;;;0.80;0.80;;;;;;;;;;5048764;28;20033;-78
2021/05/11 10:41:34;;;;;;;3.67;2.00;;;;;;;;;;5047164;28;20070;-79
2021/05/11 10:46:59;;;;;;;1.63;1.30;;;;;;;;;;5059422;28;20082;-80
2021/05/11 10:49:29;;;;;;;2.13;1.00;;;;;;;;;;5048230;28;20404;-78
2021/05/11 10:52:05;;;;;;;1.27;1.10;;;;;;;;;;5043936;28;20029;-78
2021/05/11 10:54:39;;;;;;;4.93;1.45;;;;;;;;;;5035628;28;20048;-78
2021/05/11 10:57:25;;;;;;;3.20;1.70;;;;;;;;;;5049877;28;20097;-80
2021/05/11 11:00:10;;;;;;;1.17;1.05;;;;;;;;;;5054843;28;20047;-78
2021/05/11 11:02:44;;;;;;;3.22;1.75;;;;;;;;;;5038190;28;20207;-79
2021/05/11 11:05:10;;;;;;;6.22;1.67;;;;;;;;;;5039075;28;20026;-80
2021/05/11 11:07:38;;;;;;;1.50;1.17;;;;;;;;;;5038201;28;20037;-80
2021/05/11 11:10:06;;;;;;;2.00;1.65;;;;;;;;;;5041658;28;20040;-80
2021/05/11 11:12:36;;;;;;;1.60;1.30;;;;;;;;;;5040607;28;20429;-79
2021/05/11 11:15:11;;;;;;;1.73;1.50;;;;;;;;;;5042361;28;20081;-80
2021/05/11 11:17:41;;;;;;;3.53;2.05;;;;;;;;;;5064759;28;20108;-79
2021/05/11 11:20:11;;;;;;;3.70;1.80;;;;;;;;;;5063779;28;20459;-80
2021/05/11 11:25:22;;;;;;;1.40;1.30;;;;;;;;;;5059571;28;20087;-78
2021/05/11 11:27:49;;;;;;;0.85;0.85;;;;;;;;;;5046031;28;20060;-78
2021/05/11 11:30:15;;;;;;;0.70;0.70;;;;;;;;;;5069603;28;20106;-78
2021/05/11 11:32:42;;;;;;;2.65;1.38;;;;;;;;;;5067024;28;20090;-79
2021/05/11 11:35:09;;;;;;;1.27;1.15;;;;;;;;;;5059643;28;20040;-78
2021/05/11 11:37:36;;;;;;;1.65;1.40;;;;;;;;;;5060320;28;20037;-79
2021/05/11 11:40:07;;;;;;;0.40;0.40;;;;;;;;;;5059714;28;20021;-78
2021/05/11 11:42:39;;;;;;;0.52;0.52;;;;;;;;;;5060672;28;20021;-78
2021/05/11 11:45:07;;;;;;;7.38;1.80;;;;;;;;;;5063092;28;20013;-80
2021/05/11 11:47:41;;;;;;;5.90;2.53;;;;;;;;;;5058086;28;20032;-79
2021/05/11 11:50:08;;;;;;;2.03;0.90;;;;;;;;;;5051756;28;20116;-79
2021/05/11 11:57:55;;;;;;;3.80;1.60;;;;;;;;;;5067465;28;20124;-79
2021/05/11 12:00:24;;;;;;;1.48;1.30;;;;;;;;;;5047134;28;20087;-78
2021/05/11 12:03:12;;;;;;;1.30;1.20;;;;;;;;;;5058171;28;20521;-78
2021/05/11 12:05:48;;;;;;;3.08;1.45;;;;;;;;;;5050400;28;20071;-80
2021/05/11 12:08:28;;;;;;;3.58;1.23;;;;;;;;;;5053958;28;20429;-80
2021/05/11 12:10:55;;;;;;;2.10;1.90;;;;;;;;;;5049493;28;20075;-79
2021/05/11 12:13:32;;;;;;;2.13;1.52;;;;;;;;;;5054324;28;20066;-78
2021/05/11 12:16:17;;;;;;;2.75;1.88;;;;;;;;;;5054398;28;20030;-77
2021/05/11 12:19:19;;;;;;;4.78;2.42;;;;;;;;;;5064984;28;20051;-80
2021/05/11 12:21:52;;;;;;;4.60;2.38;;;;;;;;;;5076335;28;20093;-80
2021/05/11 12:24:19;;;;;;;1.60;1.48;;;;;;;;;;5085186;28;20024;-77
2021/05/11 12:26:46;;;;;;;4.28;1.65;;;;;;;;;;5093164;28;20037;-78
2021/05/11 12:29:16;;;;;;;9.80;3.13;;;;;;;;;;5076104;28;20021;-78
2021/05/11 12:31:43;;;;;;;5.47;2.30;;;;;;;;;;5081291;28;20033;-76
2021/05/11 12:34:10;;;;;;;5.00;3.05;;;;;;;;;;5080384;28;20453;-79
2021/05/11 12:36:50;;;;;;;13.60;3.33;;;;;;;;;;5069318;28;20128;-79
2021/05/11 12:42:17;;;;;;;3.67;3.05;;;;;;;;;;5060381;28;20078;-77
2021/05/11 12:44:44;;;;;;;5.95;2.83;;;;;;;;;;5058522;28;20029;-77
2021/05/11 12:47:10;;;;;;;3.10;1.70;;;;;;;;;;5059552;28;20048;-78
2021/05/11 12:49:37;;;;;;;3.72;2.92;;;;;;;;;;5057824;28;20040;-78
2021/05/11 12:52:06;;;;;;;4.50;3.15;;;;;;;;;;5069412;28;20489;-78
2021/05/11 12:54:39;;;;;;;2.20;1.83;;;;;;;;;;5079024;28;20024;-78
2021/05/11 13:00:27;;;;;;;4.60;2.38;;;;;;;;;;5054626;28;20337;-77
2021/05/11 13:03:21;;;;;;;4.82;2.22;;;;;;;;;;5068009;28;20153;-78
2021/05/11 13:16:37;;;;;;;3.40;2.80;;;;;;;;;;5062990;28;20092;-78
2021/05/11 13:27:09;;;;;;;5.65;3.10;;;;;;;;;;5064515;28;20481;-78
2021/05/11 13:32:36;;;;;;;6.22;2.70;;;;;;;;;;5059577;28;20033;-79
2021/05/11 13:35:03;;;;;;;6.00;2.88;;;;;;;;;;5060134;28;20103;-78
2021/05/11 13:37:29;;;;;;;3.50;3.20;;;;;;;;;;5069071;28;20025;-78
2021/05/11 13:39:56;;;;;;;5.40;2.50;;;;;;;;;;5064600;28;20028;-79
2021/05/11 13:42:22;;;;;;;3.13;2.83;;;;;;;;;;5063432;28;20456;-79
2021/05/11 13:44:49;;;;;;;2.83;2.63;;;;;;;;;;5067190;28;20040;-79
2021/05/11 13:47:16;;;;;;;4.28;3.17;;;;;;;;;;5071286;28;20044;-78
2021/05/11 13:49:42;;;;;;;4.88;2.65;;;;;;;;;;5081359;28;20055;-79
2021/05/11 13:52:08;;;;;;;3.83;2.88;;;;;;;;;;5089836;28;20020;-79
2021/05/11 13:54:35;;;;;;;6.65;3.38;;;;;;;;;;5090742;28;20029;-80
2021/05/11 13:57:27;;;;;;;4.03;2.10;;;;;;;;;;5088582;28;20021;-78
2021/05/11 14:02:55;;;;;;;3.63;3.30;;;;;;;;;;5084499;28;20028;-80
2021/05/11 14:05:21;;;;;;;3.28;2.97;;;;;;;;;;5087611;28;20021;-78
2021/05/11 14:07:47;;;;;;;6.05;3.95;;;;;;;;;;5082978;28;20031;-78
2021/05/11 14:10:13;;;;;;;3.03;2.70;;;;;;;;;;5104091;28;20035;-78
2021/05/11 14:12:40;;;;;;;6.28;4.85;;;;;;;;;;5104918;28;20032;-79
2021/05/11 14:15:07;;;;;;;8.57;4.80;;;;;;;;;;5094069;28;20036;-80
2021/05/11 14:17:33;;;;;;;5.25;4.72;;;;;;;;;;5094168;28;20031;-79
2021/05/11 14:20:02;;;;;;;6.18;4.97;;;;;;;;;;5091305;28;20049;-80
2021/05/11 14:22:28;;;;;;;6.45;4.72;;;;;;;;;;5091871;28;20096;-80
2021/05/11 14:24:55;;;;;;;8.57;5.25;;;;;;;;;;5087955;28;20507;-80
2021/05/11 14:27:21;;;;;;;5.50;4.93;;;;;;;;;;5072981;28;20043;-79
2021/05/11 14:29:47;;;;;;;6.38;5.20;;;;;;;;;;5078787;28;20159;-78
2021/05/11 14:32:13;;;;;;;6.22;4.40;;;;;;;;;;5077148;28;20048;-79
2021/05/11 14:34:40;;;;;;;7.28;4.65;;;;;;;;;;5093206;28;20048;-79
2021/05/11 14:37:06;;;;;;;7.80;4.78;;;;;;;;;;5083708;28;20024;-78
2021/05/11 14:39:32;;;;;;;5.40;4.07;;;;;;;;;;5094178;28;20036;-79
2021/05/11 14:41:59;;;;;;;6.25;3.83;;;;;;;;;;5086078;28;20036;-78
2021/05/11 14:44:25;;;;;;;6.13;3.88;;;;;;;;;;5066725;28;20025;-79
2021/05/11 14:46:52;;;;;;;5.07;3.50;;;;;;;;;;5057852;28;20033;-77
2021/05/11 14:49:18;;;;;;;4.40;3.38;;;;;;;;;;5068041;28;20025;-76
2021/05/11 14:51:44;;;;;;;3.17;2.90;;;;;;;;;;5075509;28;20017;-77
2021/05/11 14:54:11;;;;;;;5.85;3.70;;;;;;;;;;5077334;28;20651;-78
2021/05/11 14:56:40;;;;;;;3.20;2.90;;;;;;;;;;5075394;28;20024;-78
2021/05/11 14:59:08;;;;;;;5.60;4.00;;;;;;;;;;5064266;28;20028;-76
2021/05/11 15:01:34;;;;;;;5.57;2.28;;;;;;;;;;5082969;28;20064;-78
2021/05/11 15:04:00;;;;;;;3.50;3.03;;;;;;;;;;5082008;28;20032;-79
2021/05/11 15:06:29;;;;;;;3.20;2.90;;;;;;;;;;5082270;28;20035;-77
2021/05/11 15:08:56;;;;;;;7.78;3.75;;;;;;;;;;5079806;28;20028;-79
2021/05/11 15:11:23;;;;;;;6.35;4.15;;;;;;;;;;5079218;28;20140;-78
2021/05/11 15:13:51;;;;;;;5.65;4.05;;;;;;;;;;5082308;28;20156;-78
2021/05/11 15:16:21;;;;;;;9.45;3.00;;;;;;;;;;5077934;28;20016;-77
2021/05/11 15:18:48;;;;;;;4.43;3.72;;;;;;;;;;5064066;28;20031;-78
2021/05/11 15:21:14;;;;;;;5.13;3.80;;;;;;;;;;5058209;28;20738;-78
2021/05/11 15:23:41;;;;;;;7.03;3.90;;;;;;;;;;5061544;28;20473;-78
2021/05/11 15:26:07;;;;;;;6.15;3.90;;;;;;;;;;5063190;28;20028;-76
2021/05/11 15:28:35;;;;;;;4.72;3.85;;;;;;;;;;5075696;28;20028;-78
2021/05/11 15:31:01;;;;;;;5.45;4.55;;;;;;;;;;5079695;28;20028;-78
2021/05/11 15:33:27;;;;;;;9.57;4.18;;;;;;;;;;5097850;28;20036;-78
2021/05/11 15:35:54;;;;;;;7.30;5.88;;;;;;;;;;5079824;28;20492;-76
2021/05/11 15:38:20;;;;;;;9.38;6.10;;;;;;;;;;5081040;28;20527;-78
2021/05/11 15:40:46;;;;;;;6.45;4.75;;;;;;;;;;5080727;28;20044;-77
2021/05/11 15:43:12;;;;;;;11.50;5.43;;;;;;;;;;5078574;28;20506;-76
2021/05/11 15:45:38;;;;;;;8.90;4.88;;;;;;;;;;5078967;28;20025;-77
2021/05/11 15:48:09;;;;;;;7.63;5.47;;;;;;;;;;5065022;28;20029;-77
2021/05/11 15:50:43;;;;;;;6.95;5.47;;;;;;;;;;5060447;28;20039;-78
2021/05/11 15:53:10;;;;;;;5.00;4.28;;;;;;;;;;5061509;28;20017;-77
2021/05/11 15:55:38;;;;;;;8.23;4.80;;;;;;;;;;5061814;28;20476;-77
2021/05/11 15:58:04;;;;;;;10.50;5.30;;;;;;;;;;5076380;28;20074;-78
2021/05/11 16:00:30;;;;;;;6.88;3.70;;;;;;;;;;5080884;28;20025;-78
2021/05/11 16:02:59;;;;;;;8.57;5.05;;;;;;;;;;5079044;28;20017;-77
2021/05/11 16:05:25;;;;;;;5.57;5.00;;;;;;;;;;5089426;28;20088;-78
2021/05/11 16:07:52;;;;;;;7.60;5.05;;;;;;;;;;5108359;28;20104;-77
2021/05/11 16:10:18;;;;;;;6.57;3.80;;;;;;;;;;5079201;28;20024;-77
2021/05/11 16:12:44;;;;;;;7.38;4.68;;;;;;;;;;5082846;28;20067;-77
2021/05/11 16:15:18;;;;;;;11.95;5.90;;;;;;;;;;5080944;28;20024;-77
2021/05/11 16:17:45;;;;;;;5.65;5.15;;;;;;;;;;5092836;28;20031;-76
2021/05/11 16:20:11;;;;;;;9.52;5.60;;;;;;;;;;5074341;28;20029;-77
2021/05/11 16:22:37;;;;;;;5.88;5.15;;;;;;;;;;5072426;28;20028;-76
2021/05/11 16:25:05;;;;;;;7.80;5.65;;;;;;;;;;5062967;28;20032;-78
2021/05/11 16:27:31;;;;;;;8.18;7.35;;;;;;;;;;5066422;28;20099;-79
2021/05/11 16:29:57;;;;;;;10.88;7.65;;;;;;;;;;5077590;28;20039;-77
2021/05/11 16:32:23;;;;;;;8.48;7.28;;;;;;;;;;5079287;28;20028;-76
2021/05/11 16:34:50;;;;;;;8.27;6.82;;;;;;;;;;5075915;28;20063;-78
2021/05/11 16:37:16;;;;;;;8.00;7.20;;;;;;;;;;5081121;28;20093;-78
2021/05/11 16:39:42;;;;;;;12.90;8.48;;;;;;;;;;5074944;28;20093;-79
2021/05/11 16:42:08;;;;;;;8.98;6.60;;;;;;;;;;5069680;28;20036;-79
2021/05/11 16:44:35;;;;;;;8.20;6.38;;;;;;;;;;5071113;28;20138;-77
2021/05/11 16:47:01;;;;;;;9.20;7.18;;;;;;;;;;5071622;28;20566;-77
2021/05/11 16:49:28;;;;;;;11.85;7.10;;;;;;;;;;5068764;28;20033;-78
2021/05/11 16:51:55;;;;;;;9.30;6.85;;;;;;;;;;5071015;28;20036;-77
2021/05/11 16:54:21;;;;;;;9.20;7.85;;;;;;;;;;5072924;28;20035;-76
2021/05/11 16:56:47;;;;;;;8.00;7.15;;;;;;;;;;5075583;28;20025;-78
2021/05/11 16:59:13;;;;;;;7.72;6.80;;;;;;;;;;5076571;28;20538;-77
2021/05/11 17:01:40;;;;;;;8.85;6.82;;;;;;;;;;5084122;28;20080;-78
2021/05/11 17:04:06;;;;;;;7.57;6.80;;;;;;;;;;5079493;28;20342;-77
2021/05/11 17:06:35;;;;;;;10.05;7.55;;;;;;;;;;5081080;28;20049;-77
2021/05/11 17:09:03;;;;;;;15.20;7.90;;;;;;;;;;5080802;28;20561;-78
2021/05/11 17:11:31;;;;;;;11.45;8.23;;;;;;;;;;5080184;28;20035;-78
2021/05/11 17:13:58;;;;;;;9.02;7.82;;;;;;;;;;5078982;28;20465;-78
2021/05/11 17:16:24;;;;;;;8.10;7.28;;;;;;;;;;5082911;28;20038;-76
2021/05/11 17:18:51;;;;;;;9.45;8.40;;;;;;;;;;5085522;28;20024;-76
2021/05/11 17:21:17;;;;;;;8.75;7.80;;;;;;;;;;5080887;28;20017;-77
2021/05/11 17:23:43;;;;;;;9.65;8.30;;;;;;;;;;5085972;28;20033;-77
2021/05/11 17:26:09;;;;;;;8.80;7.50;;;;;;;;;;5087131;28;20024;-78
2021/05/11 17:28:38;;;;;;;9.15;8.18;;;;;;;;;;5082604;28;20094;-78
2021/05/11 17:31:05;;;;;;;9.57;8.15;;;;;;;;;;5079623;28;20507;-78
2021/05/11 17:33:31;;;;;;;8.23;7.43;;;;;;;;;;5080582;28;20357;-78
2021/05/11 17:35:57;;;;;;;8.55;7.65;;;;;;;;;;5081556;28;20028;-80
2021/05/11 17:38:28;;;;;;;8.88;7.20;;;;;;;;;;5081171;28;20021;-78
2021/05/11 17:40:56;;;;;;;8.57;7.68;;;;;;;;;;5082882;28;20031;-79
2021/05/11 17:43:22;;;;;;;9.60;8.43;;;;;;;;;;5080777;28;20020;-77
2021/05/11 17:45:52;;;;;;;9.63;7.97;;;;;;;;;;5079844;28;20016;-77
2021/05/11 17:48:19;;;;;;;6.70;6.10;;;;;;;;;;5078876;28;20028;-78
2021/05/11 17:50:45;;;;;;;7.15;6.45;;;;;;;;;;5078778;28;20146;-77
2021/05/11 17:53:11;;;;;;;7.38;6.65;;;;;;;;;;5081449;28;20020;-78
2021/05/11 17:55:37;;;;;;;7.95;7.03;;;;;;;;;;5080359;28;20029;-77
2021/05/11 17:58:04;;;;;;;9.63;7.68;;;;;;;;;;5080893;28;20056;-78
2021/05/11 18:00:30;;;;;;;7.75;6.95;;;;;;;;;;5080137;28;20017;-76
2021/05/11 18:02:58;;;;;;;7.30;5.85;;;;;;;;;;5072828;28;20024;-75
2021/05/11 18:05:24;;;;;;;7.85;6.78;;;;;;;;;;5074001;28;20345;-78
2021/05/11 18:07:50;;;;;;;7.25;6.55;;;;;;;;;;5073934;28;20021;-79
2021/05/11 18:10:17;;;;;;;9.43;7.95;;;;;;;;;;5075481;28;20097;-77
2021/05/11 18:12:43;;;;;;;7.70;7.00;;;;;;;;;;5077015;28;20082;-78
2021/05/11 18:15:10;;;;;;;9.30;6.95;;;;;;;;;;5079742;28;20039;-77
2021/05/11 18:17:36;;;;;;;8.82;7.90;;;;;;;;;;5076244;28;20024;-79
2021/05/11 18:20:03;;;;;;;6.53;5.93;;;;;;;;;;5079484;28;20017;-79
2021/05/11 18:22:30;;;;;;;6.20;4.80;;;;;;;;;;5068000;28;20029;-78
2021/05/11 18:24:56;;;;;;;3.03;2.63;;;;;;;;;;5069247;28;20505;-77
2021/05/11 18:27:22;;;;;;;1.83;1.73;;;;;;;;;;5080398;28;20044;-79
2021/05/11 18:29:48;;;;;;;0.70;0.70;;;;;;;;;;5079928;28;20115;-78
2021/05/11 18:32:14;;;;;;;1.30;0.60;;;;;;;;;;5080673;28;20024;-79
2021/05/11 18:34:41;;;;;;;3.08;0.47;;;;;;;;;;5083606;28;20385;-78
2021/05/11 18:37:24;;;;;;;0.55;0.50;;;;;;;;;;5071996;28;20036;-78
2021/05/11 18:39:50;;;;;;;0.60;0.50;;;;;;;;;;5082215;28;20044;-78
2021/05/11 18:42:16;;;;;;;0.30;0.30;;;;;;;;;;5076125;28;20024;-78
2021/05/11 18:44:42;;;;;;;0.45;0.40;;;;;;;;;;5079111;28;20040;-78
2021/05/11 18:47:08;;;;;;;0.40;0.32;;;;;;;;;;5065552;28;20036;-77
2021/05/11 18:49:34;;;;;;;0.40;0.38;;;;;;;;;;5062969;28;20037;-79
2021/05/11 18:52:00;;;;;;;1.52;0.47;;;;;;;;;;5056313;28;20373;-77